sensor_id;sensor_type;location;lat;lon;timestamp;temperature;humidity
35962;DHT22;22044;48.298;10.008;2023-07-31T00:00:43;14.20;99.90
35962;DHT22;22044;48.298;10.008;2023-07-31T00:03:30;14.40;99.90
35962;DHT22;22044;48.298;10.008;2023-07-31T00:06:16;14.40;99.90
35962;DHT22;22044;48.298;10.008;2023-07-31T00:09:03;14.40;99.90
35962;DHT22;22044;48.298;10.008;2023-07-31T00:11:48;14.40;99.90
35962;DHT22;22044;48.298;10.008;2023-07-31T00:14:34;14.40;99.90
35962;DHT22;22044;48.298;10.008;2023-07-31T00:17:19;14.20;99.90
35962;DHT22;22044;48.298;10.008;2023-07-31T00:20:05;14.10;99.90
35962;DHT22;22044;48.298;10.008;2023-07-31T00:22:51;14.10;99.90
35962;DHT22;22044;48.298;10.008;2023-07-31T00:25:38;14.20;99.90
35962;DHT22;22044;48.298;10.008;2023-07-31T00:28:24;14.20;99.90
35962;DHT22;22044;48.298;10.008;2023-07-31T00:31:10;14.30;99.90
35962;DHT22;22044;48.298;10.008;2023-07-31T00:33:55;14.30;99.90
35962;DHT22;22044;48.298;10.008;2023-07-31T00:36:41;14.40;99.90
35962;DHT22;22044;48.298;10.008;2023-07-31T00:39:26;14.40;99.90
35962;DHT22;22044;48.298;10.008;2023-07-31T00:42:14;14.40;99.90
35962;DHT22;22044;48.298;10.008;2023-07-31T00:44:59;14.40;99.90
35962;DHT22;22044;48.298;10.008;2023-07-31T00:47:46;14.40;99.90
35962;DHT22;22044;48.298;10.008;2023-07-31T00:50:33;14.40;99.90
35962;DHT22;22044;48.298;10.008;2023-07-31T00:53:19;14.40;99.90
35962;DHT22;22044;48.298;10.008;2023-07-31T00:56:04;14.40;99.90
35962;DHT22;22044;48.298;10.008;2023-07-31T00:58:52;14.30;99.90
35962;DHT22;22044;48.298;10.008;2023-07-31T01:01:38;14.30;99.90
35962;DHT22;22044;48.298;10.008;2023-07-31T01:04:24;14.30;99.90
35962;DHT22;22044;48.298;10.008;2023-07-31T01:07:14;14.30;99.90
35962;DHT22;22044;48.298;10.008;2023-07-31T01:10:04;14.30;99.90
35962;DHT22;22044;48.298;10.008;2023-07-31T01:12:53;14.30;99.90
35962;DHT22;22044;48.298;10.008;2023-07-31T01:15:43;14.30;99.90
35962;DHT22;22044;48.298;10.008;2023-07-31T01:18:28;14.40;99.90
35962;DHT22;22044;48.298;10.008;2023-07-31T01:21:29;14.20;99.90
35962;DHT22;22044;48.298;10.008;2023-07-31T01:24:20;13.80;99.90
35962;DHT22;22044;48.298;10.008;2023-07-31T01:27:12;13.60;99.90
35962;DHT22;22044;48.298;10.008;2023-07-31T01:30:03;13.60;99.90
35962;DHT22;22044;48.298;10.008;2023-07-31T01:32:56;13.60;99.90
35962;DHT22;22044;48.298;10.008;2023-07-31T01:35:44;13.70;99.90
35962;DHT22;22044;48.298;10.008;2023-07-31T01:38:30;13.70;99.90
35962;DHT22;22044;48.298;10.008;2023-07-31T01:41:17;13.70;99.90
35962;DHT22;22044;48.298;10.008;2023-07-31T01:44:04;13.70;99.90
35962;DHT22;22044;48.298;10.008;2023-07-31T01:46:50;13.50;99.90
35962;DHT22;22044;48.298;10.008;2023-07-31T01:49:35;13.40;99.90
35962;DHT22;22044;48.298;10.008;2023-07-31T01:52:20;13.30;99.90
35962;DHT22;22044;48.298;10.008;2023-07-31T01:55:06;13.10;99.90
35962;DHT22;22044;48.298;10.008;2023-07-31T01:57:52;12.60;99.90
35962;DHT22;22044;48.298;10.008;2023-07-31T02:00:39;12.40;99.90
35962;DHT22;22044;48.298;10.008;2023-07-31T02:03:25;12.30;99.90
35962;DHT22;22044;48.298;10.008;2023-07-31T02:06:11;12.20;99.90
35962;DHT22;22044;48.298;10.008;2023-07-31T02:08:56;12.30;99.90
35962;DHT22;22044;48.298;10.008;2023-07-31T02:11:42;12.40;99.90
35962;DHT22;22044;48.298;10.008;2023-07-31T02:14:28;12.50;99.90
35962;DHT22;22044;48.298;10.008;2023-07-31T02:17:15;12.60;99.90
35962;DHT22;22044;48.298;10.008;2023-07-31T02:20:01;12.70;99.90
35962;DHT22;22044;48.298;10.008;2023-07-31T02:22:47;12.60;99.90
35962;DHT22;22044;48.298;10.008;2023-07-31T02:25:32;12.60;99.90
35962;DHT22;22044;48.298;10.008;2023-07-31T02:28:18;12.80;99.90
35962;DHT22;22044;48.298;10.008;2023-07-31T02:31:04;12.80;99.90
35962;DHT22;22044;48.298;10.008;2023-07-31T02:33:50;12.80;99.90
35962;DHT22;22044;48.298;10.008;2023-07-31T02:36:36;12.80;99.90
35962;DHT22;22044;48.298;10.008;2023-07-31T02:39:21;12.80;99.90
35962;DHT22;22044;48.298;10.008;2023-07-31T02:42:07;12.90;99.90
35962;DHT22;22044;48.298;10.008;2023-07-31T02:44:52;12.90;99.90
35962;DHT22;22044;48.298;10.008;2023-07-31T02:47:40;12.90;99.90
35962;DHT22;22044;48.298;10.008;2023-07-31T02:50:27;12.90;99.90
35962;DHT22;22044;48.298;10.008;2023-07-31T02:53:12;12.80;99.90
35962;DHT22;22044;48.298;10.008;2023-07-31T02:55:58;12.80;99.90
35962;DHT22;22044;48.298;10.008;2023-07-31T02:58:43;12.80;99.90
35962;DHT22;22044;48.298;10.008;2023-07-31T03:01:29;12.80;99.90
35962;DHT22;22044;48.298;10.008;2023-07-31T03:04:14;12.90;99.90
35962;DHT22;22044;48.298;10.008;2023-07-31T03:07:02;12.90;99.90
35962;DHT22;22044;48.298;10.008;2023-07-31T03:09:47;12.90;99.90
35962;DHT22;22044;48.298;10.008;2023-07-31T03:12:33;12.90;99.90
35962;DHT22;22044;48.298;10.008;2023-07-31T03:15:18;12.90;99.90
35962;DHT22;22044;48.298;10.008;2023-07-31T03:18:04;13.00;99.90
35962;DHT22;22044;48.298;10.008;2023-07-31T03:20:50;13.00;99.90
35962;DHT22;22044;48.298;10.008;2023-07-31T03:23:37;13.00;99.90
35962;DHT22;22044;48.298;10.008;2023-07-31T03:26:23;12.90;99.90
35962;DHT22;22044;48.298;10.008;2023-07-31T03:29:08;13.00;99.90
35962;DHT22;22044;48.298;10.008;2023-07-31T03:31:54;13.20;99.90
35962;DHT22;22044;48.298;10.008;2023-07-31T03:34:40;13.30;99.90
35962;DHT22;22044;48.298;10.008;2023-07-31T03:37:25;13.40;99.90
35962;DHT22;22044;48.298;10.008;2023-07-31T03:40:13;13.50;99.90
35962;DHT22;22044;48.298;10.008;2023-07-31T03:42:58;13.50;99.90
35962;DHT22;22044;48.298;10.008;2023-07-31T03:45:44;13.30;99.90
35962;DHT22;22044;48.298;10.008;2023-07-31T03:48:29;13.10;99.90
35962;DHT22;22044;48.298;10.008;2023-07-31T03:51:15;12.90;99.90
35962;DHT22;22044;48.298;10.008;2023-07-31T03:54:01;12.90;99.90
35962;DHT22;22044;48.298;10.008;2023-07-31T03:56:48;13.00;99.90
35962;DHT22;22044;48.298;10.008;2023-07-31T03:59:33;12.70;99.90
35962;DHT22;22044;48.298;10.008;2023-07-31T04:02:19;12.50;99.90
35962;DHT22;22044;48.298;10.008;2023-07-31T04:05:05;12.30;99.90
35962;DHT22;22044;48.298;10.008;2023-07-31T04:07:50;12.20;99.90
35962;DHT22;22044;48.298;10.008;2023-07-31T04:10:36;12.20;99.90
35962;DHT22;22044;48.298;10.008;2023-07-31T04:13:23;12.10;99.90
35962;DHT22;22044;48.298;10.008;2023-07-31T04:16:11;12.20;99.90
35962;DHT22;22044;48.298;10.008;2023-07-31T04:18:57;12.20;99.90
35962;DHT22;22044;48.298;10.008;2023-07-31T04:21:43;12.30;99.90
35962;DHT22;22044;48.298;10.008;2023-07-31T04:24:28;12.30;99.90
35962;DHT22;22044;48.298;10.008;2023-07-31T04:27:14;12.30;99.90
35962;DHT22;22044;48.298;10.008;2023-07-31T04:30:01;12.50;99.90
35962;DHT22;22044;48.298;10.008;2023-07-31T04:32:47;12.50;99.90
35962;DHT22;22044;48.298;10.008;2023-07-31T04:35:32;12.60;99.90
35962;DHT22;22044;48.298;10.008;2023-07-31T04:38:18;12.70;99.90
35962;DHT22;22044;48.298;10.008;2023-07-31T04:41:04;12.70;99.90
35962;DHT22;22044;48.298;10.008;2023-07-31T04:43:50;12.90;99.90
35962;DHT22;22044;48.298;10.008;2023-07-31T04:46:38;13.10;99.90
35962;DHT22;22044;48.298;10.008;2023-07-31T04:49:24;13.30;99.90
35962;DHT22;22044;48.298;10.008;2023-07-31T04:52:10;13.50;99.90
35962;DHT22;22044;48.298;10.008;2023-07-31T04:54:55;13.50;99.90
35962;DHT22;22044;48.298;10.008;2023-07-31T04:57:41;13.50;99.90
35962;DHT22;22044;48.298;10.008;2023-07-31T05:00:26;13.50;99.90
35962;DHT22;22044;48.298;10.008;2023-07-31T05:03:13;13.40;99.90
35962;DHT22;22044;48.298;10.008;2023-07-31T05:05:59;13.40;99.90
35962;DHT22;22044;48.298;10.008;2023-07-31T05:08:45;13.40;99.90
35962;DHT22;22044;48.298;10.008;2023-07-31T05:11:31;13.50;99.90
35962;DHT22;22044;48.298;10.008;2023-07-31T05:14:17;13.50;99.90
35962;DHT22;22044;48.298;10.008;2023-07-31T05:17:04;13.70;99.90
35962;DHT22;22044;48.298;10.008;2023-07-31T05:19:51;13.70;99.90
35962;DHT22;22044;48.298;10.008;2023-07-31T05:22:37;13.90;99.90
35962;DHT22;22044;48.298;10.008;2023-07-31T05:25:22;14.00;99.90
35962;DHT22;22044;48.298;10.008;2023-07-31T05:28:11;14.00;99.90
35962;DHT22;22044;48.298;10.008;2023-07-31T05:30:59;14.00;99.90
35962;DHT22;22044;48.298;10.008;2023-07-31T05:33:44;14.10;99.90
35962;DHT22;22044;48.298;10.008;2023-07-31T05:36:31;14.00;99.90
35962;DHT22;22044;48.298;10.008;2023-07-31T05:39:17;14.20;99.90
35962;DHT22;22044;48.298;10.008;2023-07-31T05:42:04;14.20;99.90
35962;DHT22;22044;48.298;10.008;2023-07-31T05:44:50;14.20;99.90
35962;DHT22;22044;48.298;10.008;2023-07-31T05:47:35;14.40;99.90
35962;DHT22;22044;48.298;10.008;2023-07-31T05:50:21;14.50;99.90
35962;DHT22;22044;48.298;10.008;2023-07-31T05:53:08;14.60;99.90
35962;DHT22;22044;48.298;10.008;2023-07-31T05:55:54;14.70;99.90
35962;DHT22;22044;48.298;10.008;2023-07-31T05:58:40;14.70;99.90
35962;DHT22;22044;48.298;10.008;2023-07-31T06:01:26;14.80;99.90
35962;DHT22;22044;48.298;10.008;2023-07-31T06:04:11;14.70;99.90
35962;DHT22;22044;48.298;10.008;2023-07-31T06:06:57;14.80;99.90
35962;DHT22;22044;48.298;10.008;2023-07-31T06:09:44;15.00;99.90
35962;DHT22;22044;48.298;10.008;2023-07-31T06:12:29;15.10;99.90
35962;DHT22;22044;48.298;10.008;2023-07-31T06:15:15;15.20;99.90
35962;DHT22;22044;48.298;10.008;2023-07-31T06:18:03;15.30;99.90
35962;DHT22;22044;48.298;10.008;2023-07-31T06:20:52;15.30;99.90
35962;DHT22;22044;48.298;10.008;2023-07-31T06:23:38;15.30;99.90
35962;DHT22;22044;48.298;10.008;2023-07-31T06:26:25;15.30;99.90
35962;DHT22;22044;48.298;10.008;2023-07-31T06:29:10;15.40;99.90
35962;DHT22;22044;48.298;10.008;2023-07-31T06:31:56;15.40;99.90
35962;DHT22;22044;48.298;10.008;2023-07-31T06:34:42;15.50;99.90
35962;DHT22;22044;48.298;10.008;2023-07-31T06:37:27;15.60;99.90
35962;DHT22;22044;48.298;10.008;2023-07-31T06:40:13;15.60;99.90
35962;DHT22;22044;48.298;10.008;2023-07-31T06:43:00;15.70;99.90
35962;DHT22;22044;48.298;10.008;2023-07-31T06:45:51;15.70;99.90
35962;DHT22;22044;48.298;10.008;2023-07-31T06:48:37;15.60;99.90
35962;DHT22;22044;48.298;10.008;2023-07-31T06:51:23;15.70;99.90
35962;DHT22;22044;48.298;10.008;2023-07-31T06:54:09;15.70;99.90
35962;DHT22;22044;48.298;10.008;2023-07-31T06:56:54;15.70;99.90
35962;DHT22;22044;48.298;10.008;2023-07-31T06:59:41;15.60;99.90
35962;DHT22;22044;48.298;10.008;2023-07-31T07:02:27;15.60;99.90
35962;DHT22;22044;48.298;10.008;2023-07-31T07:05:13;15.60;99.90
35962;DHT22;22044;48.298;10.008;2023-07-31T07:07:58;15.60;99.90
35962;DHT22;22044;48.298;10.008;2023-07-31T07:10:43;15.60;99.90
35962;DHT22;22044;48.298;10.008;2023-07-31T07:13:29;15.60;99.90
35962;DHT22;22044;48.298;10.008;2023-07-31T07:16:16;15.70;99.90
35962;DHT22;22044;48.298;10.008;2023-07-31T07:19:03;15.70;99.90
35962;DHT22;22044;48.298;10.008;2023-07-31T07:21:48;15.80;99.90
35962;DHT22;22044;48.298;10.008;2023-07-31T07:24:34;15.90;99.90
35962;DHT22;22044;48.298;10.008;2023-07-31T07:27:19;16.00;99.90
35962;DHT22;22044;48.298;10.008;2023-07-31T07:30:06;16.00;99.90
35962;DHT22;22044;48.298;10.008;2023-07-31T07:32:54;16.00;99.90
35962;DHT22;22044;48.298;10.008;2023-07-31T07:35:40;16.00;99.90
35962;DHT22;22044;48.298;10.008;2023-07-31T07:38:25;16.10;99.90
35962;DHT22;22044;48.298;10.008;2023-07-31T07:41:11;16.20;99.90
35962;DHT22;22044;48.298;10.008;2023-07-31T07:43:57;16.40;99.90
35962;DHT22;22044;48.298;10.008;2023-07-31T07:46:42;16.40;99.90
35962;DHT22;22044;48.298;10.008;2023-07-31T07:49:29;16.50;99.90
35962;DHT22;22044;48.298;10.008;2023-07-31T07:52:15;16.50;99.90
35962;DHT22;22044;48.298;10.008;2023-07-31T07:55:00;16.50;99.90
35962;DHT22;22044;48.298;10.008;2023-07-31T07:57:46;16.60;99.90
35962;DHT22;22044;48.298;10.008;2023-07-31T08:00:34;16.70;99.90
35962;DHT22;22044;48.298;10.008;2023-07-31T08:03:20;16.80;99.90
35962;DHT22;22044;48.298;10.008;2023-07-31T08:06:07;16.90;99.90
35962;DHT22;22044;48.298;10.008;2023-07-31T08:08:53;16.90;99.90
35962;DHT22;22044;48.298;10.008;2023-07-31T08:11:39;17.00;99.90
35962;DHT22;22044;48.298;10.008;2023-07-31T08:14:24;17.20;99.90
35962;DHT22;22044;48.298;10.008;2023-07-31T08:17:10;17.40;99.90
35962;DHT22;22044;48.298;10.008;2023-07-31T08:19:55;17.60;99.90
35962;DHT22;22044;48.298;10.008;2023-07-31T08:22:43;17.70;99.90
35962;DHT22;22044;48.298;10.008;2023-07-31T08:25:29;17.70;99.90
35962;DHT22;22044;48.298;10.008;2023-07-31T08:28:14;17.80;99.90
35962;DHT22;22044;48.298;10.008;2023-07-31T08:31:00;17.90;99.90
35962;DHT22;22044;48.298;10.008;2023-07-31T08:33:45;18.00;99.90
35962;DHT22;22044;48.298;10.008;2023-07-31T08:36:31;17.90;99.90
35962;DHT22;22044;48.298;10.008;2023-07-31T08:39:18;17.90;99.90
35962;DHT22;22044;48.298;10.008;2023-07-31T08:42:04;18.00;99.90
35962;DHT22;22044;48.298;10.008;2023-07-31T08:44:50;18.10;99.90
35962;DHT22;22044;48.298;10.008;2023-07-31T08:47:36;18.20;99.90
35962;DHT22;22044;48.298;10.008;2023-07-31T08:50:21;18.30;99.90
35962;DHT22;22044;48.298;10.008;2023-07-31T08:53:07;18.40;99.90
35962;DHT22;22044;48.298;10.008;2023-07-31T08:55:54;18.50;99.90
35962;DHT22;22044;48.298;10.008;2023-07-31T08:58:42;18.70;99.90
35962;DHT22;22044;48.298;10.008;2023-07-31T09:01:30;18.90;99.90
35962;DHT22;22044;48.298;10.008;2023-07-31T09:04:16;19.00;99.90
35962;DHT22;22044;48.298;10.008;2023-07-31T09:07:05;19.10;99.90
35962;DHT22;22044;48.298;10.008;2023-07-31T09:09:53;19.20;99.90
35962;DHT22;22044;48.298;10.008;2023-07-31T09:12:40;19.10;99.90
35962;DHT22;22044;48.298;10.008;2023-07-31T09:15:27;19.10;99.90
35962;DHT22;22044;48.298;10.008;2023-07-31T09:18:13;19.10;99.90
35962;DHT22;22044;48.298;10.008;2023-07-31T09:21:04;19.20;99.90
35962;DHT22;22044;48.298;10.008;2023-07-31T09:23:49;19.20;99.90
35962;DHT22;22044;48.298;10.008;2023-07-31T09:26:37;19.20;99.90
35962;DHT22;22044;48.298;10.008;2023-07-31T09:29:24;19.40;99.90
35962;DHT22;22044;48.298;10.008;2023-07-31T09:32:17;19.60;99.90
35962;DHT22;22044;48.298;10.008;2023-07-31T09:35:19;19.70;99.90
35962;DHT22;22044;48.298;10.008;2023-07-31T09:38:06;19.70;99.90
35962;DHT22;22044;48.298;10.008;2023-07-31T09:40:52;19.60;99.90
35962;DHT22;22044;48.298;10.008;2023-07-31T09:43:38;19.70;99.90
35962;DHT22;22044;48.298;10.008;2023-07-31T09:46:27;19.70;99.90
35962;DHT22;22044;48.298;10.008;2023-07-31T09:49:14;19.90;99.90
35962;DHT22;22044;48.298;10.008;2023-07-31T09:51:59;20.20;99.90
35962;DHT22;22044;48.298;10.008;2023-07-31T09:54:45;20.30;99.90
35962;DHT22;22044;48.298;10.008;2023-07-31T09:57:31;20.40;99.90
35962;DHT22;22044;48.298;10.008;2023-07-31T10:00:23;20.20;99.90
35962;DHT22;22044;48.298;10.008;2023-07-31T10:03:11;20.20;99.90
35962;DHT22;22044;48.298;10.008;2023-07-31T10:06:00;20.20;99.90
35962;DHT22;22044;48.298;10.008;2023-07-31T10:08:47;20.30;99.90
35962;DHT22;22044;48.298;10.008;2023-07-31T10:11:38;20.50;99.90
35962;DHT22;22044;48.298;10.008;2023-07-31T10:14:28;20.60;99.90
35962;DHT22;22044;48.298;10.008;2023-07-31T10:17:15;21.00;99.90
35962;DHT22;22044;48.298;10.008;2023-07-31T10:20:04;20.90;99.90
35962;DHT22;22044;48.298;10.008;2023-07-31T10:22:51;20.90;99.90
35962;DHT22;22044;48.298;10.008;2023-07-31T10:25:38;21.00;99.90
35962;DHT22;22044;48.298;10.008;2023-07-31T10:28:24;21.10;99.90
35962;DHT22;22044;48.298;10.008;2023-07-31T10:31:11;21.00;99.90
35962;DHT22;22044;48.298;10.008;2023-07-31T10:33:57;21.10;99.90
35962;DHT22;22044;48.298;10.008;2023-07-31T10:36:44;21.30;99.90
35962;DHT22;22044;48.298;10.008;2023-07-31T10:39:37;21.40;99.90
35962;DHT22;22044;48.298;10.008;2023-07-31T10:42:28;21.50;99.90
35962;DHT22;22044;48.298;10.008;2023-07-31T10:45:24;21.50;99.90
35962;DHT22;22044;48.298;10.008;2023-07-31T10:48:13;21.30;99.90
35962;DHT22;22044;48.298;10.008;2023-07-31T10:51:07;21.20;99.90
35962;DHT22;22044;48.298;10.008;2023-07-31T10:54:10;21.30;99.90
35962;DHT22;22044;48.298;10.008;2023-07-31T10:56:57;21.60;99.90
35962;DHT22;22044;48.298;10.008;2023-07-31T10:59:42;21.60;99.90
35962;DHT22;22044;48.298;10.008;2023-07-31T11:02:28;21.60;99.90
35962;DHT22;22044;48.298;10.008;2023-07-31T11:05:18;21.80;99.90
35962;DHT22;22044;48.298;10.008;2023-07-31T11:08:11;22.10;99.90
35962;DHT22;22044;48.298;10.008;2023-07-31T11:11:07;22.00;99.90
35962;DHT22;22044;48.298;10.008;2023-07-31T11:13:53;22.00;99.90
35962;DHT22;22044;48.298;10.008;2023-07-31T11:16:41;22.10;99.90
35962;DHT22;22044;48.298;10.008;2023-07-31T11:19:27;22.20;99.90
35962;DHT22;22044;48.298;10.008;2023-07-31T11:22:13;22.20;99.90
35962;DHT22;22044;48.298;10.008;2023-07-31T11:24:59;22.30;99.90
35962;DHT22;22044;48.298;10.008;2023-07-31T11:27:47;22.50;99.90
35962;DHT22;22044;48.298;10.008;2023-07-31T11:30:38;22.60;99.90
35962;DHT22;22044;48.298;10.008;2023-07-31T11:33:25;22.60;99.90
35962;DHT22;22044;48.298;10.008;2023-07-31T11:36:14;22.60;99.90
35962;DHT22;22044;48.298;10.008;2023-07-31T11:39:06;22.70;99.90
35962;DHT22;22044;48.298;10.008;2023-07-31T11:41:58;22.80;99.90
35962;DHT22;22044;48.298;10.008;2023-07-31T11:44:45;22.80;99.90
35962;DHT22;22044;48.298;10.008;2023-07-31T11:47:33;22.70;99.90
35962;DHT22;22044;48.298;10.008;2023-07-31T11:50:19;22.30;99.90
35962;DHT22;22044;48.298;10.008;2023-07-31T11:53:08;22.20;99.90
35962;DHT22;22044;48.298;10.008;2023-07-31T11:55:57;22.10;99.90
35962;DHT22;22044;48.298;10.008;2023-07-31T11:58:46;22.00;99.90
35962;DHT22;22044;48.298;10.008;2023-07-31T12:01:33;22.00;99.90
35962;DHT22;22044;48.298;10.008;2023-07-31T12:04:19;22.10;99.90
35962;DHT22;22044;48.298;10.008;2023-07-31T12:07:06;22.20;99.90
35962;DHT22;22044;48.298;10.008;2023-07-31T12:09:52;22.20;99.90
35962;DHT22;22044;48.298;10.008;2023-07-31T12:12:38;22.40;99.90
35962;DHT22;22044;48.298;10.008;2023-07-31T12:15:32;22.30;99.90
35962;DHT22;22044;48.298;10.008;2023-07-31T12:18:20;22.30;99.90
35962;DHT22;22044;48.298;10.008;2023-07-31T12:21:07;22.20;99.90
35962;DHT22;22044;48.298;10.008;2023-07-31T12:23:53;22.10;99.90
35962;DHT22;22044;48.298;10.008;2023-07-31T12:26:39;22.00;99.90
35962;DHT22;22044;48.298;10.008;2023-07-31T12:29:33;21.90;99.90
35962;DHT22;22044;48.298;10.008;2023-07-31T12:32:22;22.00;99.90
35962;DHT22;22044;48.298;10.008;2023-07-31T12:35:09;22.10;99.90
35962;DHT22;22044;48.298;10.008;2023-07-31T12:37:55;22.10;99.90
35962;DHT22;22044;48.298;10.008;2023-07-31T12:40:43;22.10;99.90
35962;DHT22;22044;48.298;10.008;2023-07-31T12:43:28;22.10;99.90
35962;DHT22;22044;48.298;10.008;2023-07-31T12:46:14;22.20;99.90
35962;DHT22;22044;48.298;10.008;2023-07-31T12:49:01;22.10;99.90
35962;DHT22;22044;48.298;10.008;2023-07-31T12:51:48;22.10;99.90
35962;DHT22;22044;48.298;10.008;2023-07-31T12:54:34;22.20;99.90
35962;DHT22;22044;48.298;10.008;2023-07-31T12:57:19;22.20;99.90
35962;DHT22;22044;48.298;10.008;2023-07-31T13:00:08;21.80;99.90
35962;DHT22;22044;48.298;10.008;2023-07-31T13:02:54;21.60;99.90
35962;DHT22;22044;48.298;10.008;2023-07-31T13:05:40;21.80;99.90
35962;DHT22;22044;48.298;10.008;2023-07-31T13:08:27;22.00;99.90
35962;DHT22;22044;48.298;10.008;2023-07-31T13:11:12;21.90;99.90
35962;DHT22;22044;48.298;10.008;2023-07-31T13:13:58;21.70;99.90
35962;DHT22;22044;48.298;10.008;2023-07-31T13:16:44;21.90;99.90
35962;DHT22;22044;48.298;10.008;2023-07-31T13:19:29;22.00;99.90
35962;DHT22;22044;48.298;10.008;2023-07-31T13:22:16;22.10;99.90
35962;DHT22;22044;48.298;10.008;2023-07-31T13:25:04;22.10;99.90
35962;DHT22;22044;48.298;10.008;2023-07-31T13:27:50;22.20;99.90
35962;DHT22;22044;48.298;10.008;2023-07-31T13:30:35;22.20;99.90
35962;DHT22;22044;48.298;10.008;2023-07-31T13:33:21;22.30;99.90
35962;DHT22;22044;48.298;10.008;2023-07-31T13:36:07;22.30;99.90
35962;DHT22;22044;48.298;10.008;2023-07-31T13:38:52;22.20;99.90
35962;DHT22;22044;48.298;10.008;2023-07-31T13:41:40;21.90;99.90
35962;DHT22;22044;48.298;10.008;2023-07-31T13:44:26;22.10;99.90
35962;DHT22;22044;48.298;10.008;2023-07-31T13:47:11;22.20;99.90
35962;DHT22;22044;48.298;10.008;2023-07-31T13:49:57;21.80;99.90
35962;DHT22;22044;48.298;10.008;2023-07-31T13:52:43;21.70;99.90
35962;DHT22;22044;48.298;10.008;2023-07-31T13:55:30;21.60;99.90
35962;DHT22;22044;48.298;10.008;2023-07-31T13:58:17;21.50;99.90
35962;DHT22;22044;48.298;10.008;2023-07-31T14:01:05;21.70;99.90
35962;DHT22;22044;48.298;10.008;2023-07-31T14:03:51;21.80;99.90
35962;DHT22;22044;48.298;10.008;2023-07-31T14:06:37;21.80;99.90
35962;DHT22;22044;48.298;10.008;2023-07-31T14:09:22;21.80;99.90
35962;DHT22;22044;48.298;10.008;2023-07-31T14:12:08;21.60;99.90
35962;DHT22;22044;48.298;10.008;2023-07-31T14:14:55;21.90;99.90
35962;DHT22;22044;48.298;10.008;2023-07-31T14:17:41;22.00;99.90
35962;DHT22;22044;48.298;10.008;2023-07-31T14:20:29;22.00;99.90
35962;DHT22;22044;48.298;10.008;2023-07-31T14:23:15;21.80;99.90
35962;DHT22;22044;48.298;10.008;2023-07-31T14:26:00;21.60;99.90
35962;DHT22;22044;48.298;10.008;2023-07-31T14:28:46;21.50;99.90
35962;DHT22;22044;48.298;10.008;2023-07-31T14:31:33;21.50;99.90
35962;DHT22;22044;48.298;10.008;2023-07-31T14:34:19;21.50;99.90
35962;DHT22;22044;48.298;10.008;2023-07-31T14:37:05;21.50;99.90
35962;DHT22;22044;48.298;10.008;2023-07-31T14:39:51;21.50;99.90
35962;DHT22;22044;48.298;10.008;2023-07-31T14:42:37;21.60;99.90
35962;DHT22;22044;48.298;10.008;2023-07-31T14:45:23;21.60;99.90
35962;DHT22;22044;48.298;10.008;2023-07-31T14:48:11;21.90;99.90
35962;DHT22;22044;48.298;10.008;2023-07-31T14:50:57;22.00;99.90
35962;DHT22;22044;48.298;10.008;2023-07-31T14:53:43;22.20;99.90
35962;DHT22;22044;48.298;10.008;2023-07-31T14:56:29;22.30;99.90
35962;DHT22;22044;48.298;10.008;2023-07-31T14:59:14;22.30;99.90
35962;DHT22;22044;48.298;10.008;2023-07-31T15:02:01;22.50;99.90
35962;DHT22;22044;48.298;10.008;2023-07-31T15:04:48;22.40;99.90
35962;DHT22;22044;48.298;10.008;2023-07-31T15:07:34;22.40;99.90
35962;DHT22;22044;48.298;10.008;2023-07-31T15:10:20;22.50;99.90
35962;DHT22;22044;48.298;10.008;2023-07-31T15:13:06;22.50;99.90
35962;DHT22;22044;48.298;10.008;2023-07-31T15:15:51;22.50;99.90
35962;DHT22;22044;48.298;10.008;2023-07-31T15:18:37;22.70;99.90
35962;DHT22;22044;48.298;10.008;2023-07-31T15:21:24;22.60;99.90
35962;DHT22;22044;48.298;10.008;2023-07-31T15:24:10;22.60;99.90
35962;DHT22;22044;48.298;10.008;2023-07-31T15:26:55;22.30;99.90
35962;DHT22;22044;48.298;10.008;2023-07-31T15:29:41;22.10;99.90
35962;DHT22;22044;48.298;10.008;2023-07-31T15:32:27;22.20;99.90
35962;DHT22;22044;48.298;10.008;2023-07-31T15:35:13;22.20;99.90
35962;DHT22;22044;48.298;10.008;2023-07-31T15:38:00;22.30;99.90
35962;DHT22;22044;48.298;10.008;2023-07-31T15:40:48;22.50;99.90
35962;DHT22;22044;48.298;10.008;2023-07-31T15:43:34;22.50;99.90
35962;DHT22;22044;48.298;10.008;2023-07-31T15:46:20;22.60;99.90
35962;DHT22;22044;48.298;10.008;2023-07-31T15:49:07;22.70;99.90
35962;DHT22;22044;48.298;10.008;2023-07-31T15:51:53;22.80;99.90
35962;DHT22;22044;48.298;10.008;2023-07-31T15:54:45;22.80;99.90
35962;DHT22;22044;48.298;10.008;2023-07-31T15:57:32;22.90;99.90
35962;DHT22;22044;48.298;10.008;2023-07-31T16:00:18;22.60;99.90
35962;DHT22;22044;48.298;10.008;2023-07-31T16:03:03;22.60;99.90
35962;DHT22;22044;48.298;10.008;2023-07-31T16:05:49;22.70;99.90
35962;DHT22;22044;48.298;10.008;2023-07-31T16:08:35;22.60;99.90
35962;DHT22;22044;48.298;10.008;2023-07-31T16:11:26;22.80;99.90
35962;DHT22;22044;48.298;10.008;2023-07-31T16:14:12;23.00;99.90
35962;DHT22;22044;48.298;10.008;2023-07-31T16:16:57;23.20;99.90
35962;DHT22;22044;48.298;10.008;2023-07-31T16:19:43;23.10;99.90
35962;DHT22;22044;48.298;10.008;2023-07-31T16:22:29;23.20;99.90
35962;DHT22;22044;48.298;10.008;2023-07-31T16:25:14;23.20;99.90
35962;DHT22;22044;48.298;10.008;2023-07-31T16:28:02;23.20;99.90
35962;DHT22;22044;48.298;10.008;2023-07-31T16:30:51;22.80;99.90
35962;DHT22;22044;48.298;10.008;2023-07-31T16:33:37;22.60;99.90
35962;DHT22;22044;48.298;10.008;2023-07-31T16:36:22;22.80;99.90
35962;DHT22;22044;48.298;10.008;2023-07-31T16:39:09;22.80;99.90
35962;DHT22;22044;48.298;10.008;2023-07-31T16:41:55;22.80;99.90
35962;DHT22;22044;48.298;10.008;2023-07-31T16:44:43;22.90;99.90
35962;DHT22;22044;48.298;10.008;2023-07-31T16:47:28;22.70;99.90
35962;DHT22;22044;48.298;10.008;2023-07-31T16:50:14;22.70;99.90
35962;DHT22;22044;48.298;10.008;2023-07-31T16:53:00;22.70;99.90
35962;DHT22;22044;48.298;10.008;2023-07-31T16:55:46;22.80;99.90
35962;DHT22;22044;48.298;10.008;2023-07-31T16:58:32;22.80;99.90
35962;DHT22;22044;48.298;10.008;2023-07-31T17:01:19;22.90;99.90
35962;DHT22;22044;48.298;10.008;2023-07-31T17:04:06;22.70;99.90
35962;DHT22;22044;48.298;10.008;2023-07-31T17:06:51;22.50;99.90
35962;DHT22;22044;48.298;10.008;2023-07-31T17:09:37;22.80;99.90
35962;DHT22;22044;48.298;10.008;2023-07-31T17:12:23;22.90;99.90
35962;DHT22;22044;48.298;10.008;2023-07-31T17:15:09;23.00;99.90